Alajuela, Costa Rica

8:11 PM CST on August 03, 2015 (GMT -0600)
San Marcanda | | Change Station
CLOSE
Current Station
Personal Weather Station
Location: Heredia Province, HEREDIA PROVINCE
Elevation: 3383 ft
Nearby Weather Stations

Elev 3383 ft 10.02 °N, 84.17 °W | Updated 2 minutes ago

Clear
Clear
73.0 °F
Feels Like 74 °F
N
10.9
Wind Variable Wind from West

Today
High -- | Low -- °F
--% Chance of Precip.
Yesterday
High -- | Low -- °F
Precip. -- in
5:26 AM 5:59 PM
Waning Gibbous, 82% visible
Pressure 29.94 in
Visibility -9999.0 miles
Clouds
Heat Index 74 °F
Dew Point 65 °F
Humidity 77%
Rainfall 0.00 in
Snow Depth Not available.
UV Not available.
Pollen Not available.
Air Quality Not available.
Flu Activity Not available.
METAR MROC 040200Z 07010G20KT CAVOK 24/17 A2994 NOSIG

More Conditions Fewer Conditions

Pressure 29.94 in
Visibility -9999.0 miles
Clouds
Heat Index 74 °F
Dew Point 65 °F
Humidity 77%
Rainfall 0.00 in
Snow Depth Not available.
UV Not available.
Pollen Not available.
Air Quality Not available.
Flu Activity Not available.
METAR MROC 040200Z 07010G20KT CAVOK 24/17 A2994 NOSIG

More Conditions Fewer Conditions

10-Day Weather Forecast

×

Almanac

Astronomy

Aug. 03, 2015 Rise Set
Actual Time
Civil Twilight
Nautical Twilight
Astronomical Twilight
Moon
Length of Visible Light
Length of Day
Tomorrow will be .
, % of the Moon is Illuminated

Today's Extremes

Country Highs Country Lows

Community

WunderPhotos

Upload Photos

1,843,831 photos uploaded!

WunderBlogs® & News

Nearby

Air Quality

  Air Quality AQ Index Pollutant
Not available.

Snow Depth

Station Depth Elevation

Earthquake Activity

City Distance Mag. Time & Date
Minimum magnitude displayed is 2.5.

Coastal Water Temperatures

Place Temperature

Stations

Nearby Weather Stations

Station Location Temp. Windchill Dew Point Humidity Wind Precip. Elev Updated Type